Pagrindinis puslapis
METAR-TAF:

METAR-TAF

Oro uostai :

Tulča, Rumunija

platuma: 45-11N, ilguma: 028-49E, Aukštis: 4 m

Dabartinis oras

Ataskaita buvo paskelbta 20 minutes, ne 06:00 UTC
Vėjas 7 kt iš Pietvakarių
Temperatūra 16°C
Drėgmė 82%
Slėgis 1008 hPa
Matomumas 10 km arba daugiau
nėra debesų žemiau 1500 m ir nėra kamuolinių lietaus debesų

METAR: LRTC 140600Z 23007KT CAVOK 16/13 Q1008 R16/29//95

Laikas: 09:20 (06:20 UTC)

Prognozė

Ataskaita buvo paskelbta 1 valandą ir 20 minutes, ne 05:00 UTC
Prognozė galioja nuo 14 metu 06 UTC su 14 metu 15 UTC
Vėjas 10 kt iš Pietvakarių
Matomumas 10 km arba daugiau
nėra debesų žemiau 1500 m ir nėra kamuolinių lietaus debesų
Tikimybė 40% :
Laikinai
nuo 14 metu 10 UTC su 14 metu 15 UTC
Vėjas 15 kt iš Pietų/Pietvakarių su gūsio iki 25 kt
Išsisklaidę debesys ne aukštis 4000 ft, Liūtiniai kamuoliniai debesys.

TAF: LRTC 140500Z 1406/1415 23010KT CAVOK PROB40 TEMPO 1410/1415 20015G25KT SCT040CB

Orai ataskaitas ir orų prognozės (METAR, TAF).

turimą stotys yra geltonos ir raudonos taškus žemėlapyje.

Perkelti pele per norėdami pamatyti stoties vardą.

Tada spustelėkite, norėdami matyti oro stebėjimo ir prognozės.

Norėdami pakeisti žemėlapį: spustelėkite ant žalios mygtukų su juodo kryžiaus žemyn,; žalią mygtuką su brūkšneliu, jei norite nutolinti; arba žalių rodyklių gretimoms žemėlapius.


METAR-TAF: